Аэропорт: Сургут. Сургут

ICAO: USRR

METAR:
2024-04-22 22:00:00
USRR 222200Z 31004MPS 9999 SCT040 M12/M16 Q1029 R25/CLRD60 NOSIG RMK QFE766
TAF:
2024-04-22 16:45:00
TAF USRR 221645Z 2218/2318 32005G14MPS 6000 FEW005 BKN016 
  TEMPO 2218/2306 2000 SHSN SCT003 BKN016CB